Terminal Aerodrome Forecast
Issued by NWS

Home | Current Version | Previous Version | Text Only | Print | Product List | Glossary On
Versions: 1 2 3 4 5 6 7 8 9 10 11 12 13 14 15 16 17 18
870
FTAK31 PAJN 092134 AAB
TAFAPG
TAF AMD
PAPG 092134Z 0922/1018 VRB03KT 1SM BR FEW002 SCT004 BKN015
      TEMPO 0922/1002 07005KT 6SM BR FEW004 SCT015 SCT200
     FM100600 12006KT P6SM SCT100 BKN150 WS020/14035KT
     FM100900 12008KT 6SM -RA BKN035 OVC080 WS020/14035KT
     FM101200 12010KT 4SM -RA BR SCT006 SCT010 OVC025=

USA.gov is the U.S. government's official web portal to all federal, state and local government web resources and services.